sensor_id;sensor_type;location;lat;lon;timestamp;pressure;altitude;pressure_sealevel;temperature
67434;BMP280;54305;47.950;6.572;2024-03-02T00:00:20;92984.81;;;5.04
67434;BMP280;54305;47.950;6.572;2024-03-02T00:02:49;92977.94;;;5.23
67434;BMP280;54305;47.950;6.572;2024-03-02T00:05:17;92989.22;;;5.27
67434;BMP280;54305;47.950;6.572;2024-03-02T00:07:44;92973.75;;;5.48
67434;BMP280;54305;47.950;6.572;2024-03-02T00:10:11;92973.97;;;5.46
67434;BMP280;54305;47.950;6.572;2024-03-02T00:12:39;92980.16;;;5.53
67434;BMP280;54305;47.950;6.572;2024-03-02T00:17:56;92977.88;;;5.29
67434;BMP280;54305;47.950;6.572;2024-03-02T00:20:22;92973.41;;;5.26
67434;BMP280;54305;47.950;6.572;2024-03-02T00:22:49;92979.41;;;5.28
67434;BMP280;54305;47.950;6.572;2024-03-02T00:25:15;92978.75;;;5.28
67434;BMP280;54305;47.950;6.572;2024-03-02T00:27:40;92979.53;;;5.46
67434;BMP280;54305;47.950;6.572;2024-03-02T00:33:00;92973.78;;;5.42
67434;BMP280;54305;47.950;6.572;2024-03-02T00:35:25;92971.31;;;5.20
67434;BMP280;54305;47.950;6.572;2024-03-02T00:37:51;92977.97;;;5.10
67434;BMP280;54305;47.950;6.572;2024-03-02T00:40:17;92978.63;;;4.97
67434;BMP280;54305;47.950;6.572;2024-03-02T00:42:42;92983.09;;;5.07
67434;BMP280;54305;47.950;6.572;2024-03-02T00:45:08;92977.84;;;5.43
67434;BMP280;54305;47.950;6.572;2024-03-02T00:47:40;92983.44;;;5.29
67434;BMP280;54305;47.950;6.572;2024-03-02T00:50:07;92980.94;;;5.21
67434;BMP280;54305;47.950;6.572;2024-03-02T00:52:32;92977.22;;;5.36
67434;BMP280;54305;47.950;6.572;2024-03-02T00:54:58;92970.50;;;5.59
67434;BMP280;54305;47.950;6.572;2024-03-02T00:57:24;92982.66;;;5.62
67434;BMP280;54305;47.950;6.572;2024-03-02T00:59:51;92966.41;;;5.64
67434;BMP280;54305;47.950;6.572;2024-03-02T01:02:16;92965.56;;;5.66
67434;BMP280;54305;47.950;6.572;2024-03-02T01:04:42;92973.44;;;5.70
67434;BMP280;54305;47.950;6.572;2024-03-02T01:07:07;92979.13;;;5.81
67434;BMP280;54305;47.950;6.572;2024-03-02T01:09:32;92972.75;;;5.76
67434;BMP280;54305;47.950;6.572;2024-03-02T01:11:58;92972.41;;;5.67
67434;BMP280;54305;47.950;6.572;2024-03-02T01:14:23;92972.09;;;5.82
67434;BMP280;54305;47.950;6.572;2024-03-02T01:16:49;92968.69;;;5.75
67434;BMP280;54305;47.950;6.572;2024-03-02T01:19:14;92971.56;;;5.62
67434;BMP280;54305;47.950;6.572;2024-03-02T01:21:40;92971.78;;;5.60
67434;BMP280;54305;47.950;6.572;2024-03-02T01:24:06;92977.75;;;5.62
67434;BMP280;54305;47.950;6.572;2024-03-02T01:26:31;92973.09;;;5.54
67434;BMP280;54305;47.950;6.572;2024-03-02T01:28:56;92969.47;;;5.56
67434;BMP280;54305;47.950;6.572;2024-03-02T01:31:22;92974.75;;;5.58
67434;BMP280;54305;47.950;6.572;2024-03-02T01:33:47;92970.97;;;5.48
67434;BMP280;54305;47.950;6.572;2024-03-02T01:36:12;92963.09;;;5.51
67434;BMP280;54305;47.950;6.572;2024-03-02T01:38:38;92964.41;;;5.39
67434;BMP280;54305;47.950;6.572;2024-03-02T01:41:04;92957.59;;;5.31
67434;BMP280;54305;47.950;6.572;2024-03-02T01:43:29;92961.66;;;5.32
67434;BMP280;54305;47.950;6.572;2024-03-02T01:45:54;92963.56;;;5.40
67434;BMP280;54305;47.950;6.572;2024-03-02T01:48:21;92963.09;;;5.51
67434;BMP280;54305;47.950;6.572;2024-03-02T01:50:47;92966.91;;;5.54
67434;BMP280;54305;47.950;6.572;2024-03-02T01:53:12;92960.22;;;5.64
67434;BMP280;54305;47.950;6.572;2024-03-02T01:55:37;92951.16;;;5.83
67434;BMP280;54305;47.950;6.572;2024-03-02T01:58:03;92963.88;;;5.93
67434;BMP280;54305;47.950;6.572;2024-03-02T02:00:28;92953.72;;;5.85
67434;BMP280;54305;47.950;6.572;2024-03-02T02:02:55;92949.66;;;5.84
67434;BMP280;54305;47.950;6.572;2024-03-02T02:05:21;92957.97;;;5.84
67434;BMP280;54305;47.950;6.572;2024-03-02T02:07:46;92944.72;;;5.85
67434;BMP280;54305;47.950;6.572;2024-03-02T02:10:12;92939.53;;;5.63
67434;BMP280;54305;47.950;6.572;2024-03-02T02:12:38;92947.09;;;5.45
67434;BMP280;54305;47.950;6.572;2024-03-02T02:15:04;92943.91;;;5.36
67434;BMP280;54305;47.950;6.572;2024-03-02T02:17:46;92942.81;;;5.46
67434;BMP280;54305;47.950;6.572;2024-03-02T02:20:11;92936.94;;;5.61
67434;BMP280;54305;47.950;6.572;2024-03-02T02:22:37;92937.56;;;5.68
67434;BMP280;54305;47.950;6.572;2024-03-02T02:25:02;92947.00;;;5.58
67434;BMP280;54305;47.950;6.572;2024-03-02T02:27:27;92939.13;;;5.54
67434;BMP280;54305;47.950;6.572;2024-03-02T02:29:53;92938.75;;;5.45
67434;BMP280;54305;47.950;6.572;2024-03-02T02:32:18;92931.91;;;5.44
67434;BMP280;54305;47.950;6.572;2024-03-02T02:34:43;92926.06;;;5.59
67434;BMP280;54305;47.950;6.572;2024-03-02T02:37:09;92921.19;;;5.53
67434;BMP280;54305;47.950;6.572;2024-03-02T02:39:34;92917.81;;;5.46
67434;BMP280;54305;47.950;6.572;2024-03-02T02:42:00;92918.88;;;5.49
67434;BMP280;54305;47.950;6.572;2024-03-02T02:44:26;92914.81;;;5.48
67434;BMP280;54305;47.950;6.572;2024-03-02T02:46:51;92918.84;;;5.55
67434;BMP280;54305;47.950;6.572;2024-03-02T02:49:17;92919.22;;;5.58
67434;BMP280;54305;47.950;6.572;2024-03-02T02:51:42;92913.66;;;5.58
67434;BMP280;54305;47.950;6.572;2024-03-02T02:54:07;92925.03;;;5.56
67434;BMP280;54305;47.950;6.572;2024-03-02T02:56:33;92910.69;;;5.60
67434;BMP280;54305;47.950;6.572;2024-03-02T02:58:58;92902.34;;;5.60
67434;BMP280;54305;47.950;6.572;2024-03-02T03:01:24;92899.53;;;5.66
67434;BMP280;54305;47.950;6.572;2024-03-02T03:03:49;92896.56;;;5.68
67434;BMP280;54305;47.950;6.572;2024-03-02T03:06:14;92910.00;;;5.66
67434;BMP280;54305;47.950;6.572;2024-03-02T03:08:40;92910.00;;;5.66
67434;BMP280;54305;47.950;6.572;2024-03-02T03:11:05;92908.66;;;5.78
67434;BMP280;54305;47.950;6.572;2024-03-02T03:13:31;92904.13;;;5.81
67434;BMP280;54305;47.950;6.572;2024-03-02T03:15:57;92893.22;;;5.86
67434;BMP280;54305;47.950;6.572;2024-03-02T03:18:23;92902.97;;;5.91
67434;BMP280;54305;47.950;6.572;2024-03-02T03:20:49;92905.31;;;5.95
67434;BMP280;54305;47.950;6.572;2024-03-02T03:23:15;92891.25;;;5.91
67434;BMP280;54305;47.950;6.572;2024-03-02T03:25:42;92896.38;;;5.88
67434;BMP280;54305;47.950;6.572;2024-03-02T03:28:08;92904.16;;;6.05
67434;BMP280;54305;47.950;6.572;2024-03-02T03:30:36;92900.31;;;6.02
67434;BMP280;54305;47.950;6.572;2024-03-02T03:33:02;92894.53;;;5.80
67434;BMP280;54305;47.950;6.572;2024-03-02T03:35:27;92899.88;;;5.75
67434;BMP280;54305;47.950;6.572;2024-03-02T03:37:53;92907.19;;;5.72
67434;BMP280;54305;47.950;6.572;2024-03-02T03:40:18;92905.63;;;5.80
67434;BMP280;54305;47.950;6.572;2024-03-02T03:42:44;92896.72;;;5.73
67434;BMP280;54305;47.950;6.572;2024-03-02T03:45:09;92897.81;;;5.69
67434;BMP280;54305;47.950;6.572;2024-03-02T03:47:35;92899.41;;;5.55
67434;BMP280;54305;47.950;6.572;2024-03-02T03:50:01;92901.22;;;5.70
67434;BMP280;54305;47.950;6.572;2024-03-02T03:52:28;92899.34;;;5.62
67434;BMP280;54305;47.950;6.572;2024-03-02T03:54:53;92901.22;;;5.70
67434;BMP280;54305;47.950;6.572;2024-03-02T03:57:18;92906.78;;;5.70
67434;BMP280;54305;47.950;6.572;2024-03-02T03:59:44;92910.56;;;5.80
67434;BMP280;54305;47.950;6.572;2024-03-02T04:02:12;92905.88;;;5.78
67434;BMP280;54305;47.950;6.572;2024-03-02T04:04:38;92901.25;;;5.63
67434;BMP280;54305;47.950;6.572;2024-03-02T04:07:03;92904.47;;;5.66
67434;BMP280;54305;47.950;6.572;2024-03-02T04:09:29;92913.22;;;5.68
67434;BMP280;54305;47.950;6.572;2024-03-02T04:11:54;92901.59;;;5.79
67434;BMP280;54305;47.950;6.572;2024-03-02T04:14:20;92904.06;;;5.88
67434;BMP280;54305;47.950;6.572;2024-03-02T04:16:45;92914.34;;;5.89
67434;BMP280;54305;47.950;6.572;2024-03-02T04:19:10;92905.94;;;5.71
67434;BMP280;54305;47.950;6.572;2024-03-02T04:21:36;92911.28;;;5.67
67434;BMP280;54305;47.950;6.572;2024-03-02T04:24:02;92908.53;;;5.67
67434;BMP280;54305;47.950;6.572;2024-03-02T04:26:28;92911.88;;;5.74
67434;BMP280;54305;47.950;6.572;2024-03-02T04:28:54;92901.16;;;5.77
67434;BMP280;54305;47.950;6.572;2024-03-02T04:31:19;92897.53;;;5.78
67434;BMP280;54305;47.950;6.572;2024-03-02T04:33:45;92901.34;;;5.81
67434;BMP280;54305;47.950;6.572;2024-03-02T04:36:10;92903.53;;;5.74
67434;BMP280;54305;47.950;6.572;2024-03-02T04:38:36;92905.50;;;5.69
67434;BMP280;54305;47.950;6.572;2024-03-02T04:41:03;92901.81;;;5.77
67434;BMP280;54305;47.950;6.572;2024-03-02T04:43:28;92904.66;;;5.64
67434;BMP280;54305;47.950;6.572;2024-03-02T04:45:54;92897.16;;;5.69
67434;BMP280;54305;47.950;6.572;2024-03-02T04:48:19;92903.00;;;5.60
67434;BMP280;54305;47.950;6.572;2024-03-02T04:50:45;92900.41;;;5.65
67434;BMP280;54305;47.950;6.572;2024-03-02T04:53:10;92886.25;;;5.73
67434;BMP280;54305;47.950;6.572;2024-03-02T04:55:35;92894.00;;;5.66
67434;BMP280;54305;47.950;6.572;2024-03-02T04:58:06;92890.78;;;5.64
67434;BMP280;54305;47.950;6.572;2024-03-02T05:00:32;92889.06;;;5.67
67434;BMP280;54305;47.950;6.572;2024-03-02T05:02:58;92893.53;;;5.70
67434;BMP280;54305;47.950;6.572;2024-03-02T05:05:23;92905.88;;;5.78
67434;BMP280;54305;47.950;6.572;2024-03-02T05:07:48;92896.56;;;5.68
67434;BMP280;54305;47.950;6.572;2024-03-02T05:10:14;92905.75;;;5.67
67434;BMP280;54305;47.950;6.572;2024-03-02T05:12:40;92911.66;;;5.76
67434;BMP280;54305;47.950;6.572;2024-03-02T05:15:09;92901.81;;;5.77
67434;BMP280;54305;47.950;6.572;2024-03-02T05:17:44;92909.00;;;5.87
67434;BMP280;54305;47.950;6.572;2024-03-02T05:20:09;92903.09;;;5.78
67434;BMP280;54305;47.950;6.572;2024-03-02T05:22:36;92906.50;;;5.79
67434;BMP280;54305;47.950;6.572;2024-03-02T05:25:02;92914.81;;;5.85
67434;BMP280;54305;47.950;6.572;2024-03-02T05:27:28;92907.09;;;5.86
67434;BMP280;54305;47.950;6.572;2024-03-02T05:29:54;92910.63;;;5.97
67434;BMP280;54305;47.950;6.572;2024-03-02T05:32:19;92914.09;;;5.91
67434;BMP280;54305;47.950;6.572;2024-03-02T05:34:44;92909.47;;;5.83
67434;BMP280;54305;47.950;6.572;2024-03-02T05:37:10;92916.31;;;5.84
67434;BMP280;54305;47.950;6.572;2024-03-02T05:39:35;92910.75;;;5.84
67434;BMP280;54305;47.950;6.572;2024-03-02T05:42:01;92907.91;;;5.91
67434;BMP280;54305;47.950;6.572;2024-03-02T05:44:26;92909.00;;;5.87
67434;BMP280;54305;47.950;6.572;2024-03-02T05:46:51;92904.69;;;5.95
67434;BMP280;54305;47.950;6.572;2024-03-02T05:49:18;92907.47;;;5.95
67434;BMP280;54305;47.950;6.572;2024-03-02T05:51:43;92904.25;;;5.92
67434;BMP280;54305;47.950;6.572;2024-03-02T05:54:08;92909.00;;;5.87
67434;BMP280;54305;47.950;6.572;2024-03-02T05:56:35;92899.34;;;5.93
67434;BMP280;54305;47.950;6.572;2024-03-02T05:59:00;92901.34;;;5.81
67434;BMP280;54305;47.950;6.572;2024-03-02T06:01:40;92904.38;;;5.79
67434;BMP280;54305;47.950;6.572;2024-03-02T06:04:06;92898.44;;;5.70
67434;BMP280;54305;47.950;6.572;2024-03-02T06:06:33;92898.16;;;5.85
67434;BMP280;54305;47.950;6.572;2024-03-02T06:09:00;92892.31;;;5.87
67434;BMP280;54305;47.950;6.572;2024-03-02T06:11:25;92894.25;;;5.89
67434;BMP280;54305;47.950;6.572;2024-03-02T06:13:51;92897.44;;;5.91
67434;BMP280;54305;47.950;6.572;2024-03-02T06:16:16;92893.84;;;5.86
67434;BMP280;54305;47.950;6.572;2024-03-02T06:18:41;92895.97;;;5.86
67434;BMP280;54305;47.950;6.572;2024-03-02T06:21:07;92897.94;;;5.81
67434;BMP280;54305;47.950;6.572;2024-03-02T06:23:33;92898.31;;;5.90
67434;BMP280;54305;47.950;6.572;2024-03-02T06:26:00;92897.63;;;5.96
67434;BMP280;54305;47.950;6.572;2024-03-02T06:28:25;92893.25;;;5.79
67434;BMP280;54305;47.950;6.572;2024-03-02T06:30:50;92899.63;;;5.84
67434;BMP280;54305;47.950;6.572;2024-03-02T06:33:16;92895.38;;;5.85
67434;BMP280;54305;47.950;6.572;2024-03-02T06:35:42;92903.38;;;6.00
67434;BMP280;54305;47.950;6.572;2024-03-02T06:38:07;92898.16;;;5.85
67434;BMP280;54305;47.950;6.572;2024-03-02T06:40:32;92903.06;;;5.85
67434;BMP280;54305;47.950;6.572;2024-03-02T06:42:59;92899.84;;;5.82
67434;BMP280;54305;47.950;6.572;2024-03-02T06:45:24;92899.97;;;5.93
67434;BMP280;54305;47.950;6.572;2024-03-02T06:47:49;92900.44;;;5.89
67434;BMP280;54305;47.950;6.572;2024-03-02T06:50:18;92902.19;;;5.86
67434;BMP280;54305;47.950;6.572;2024-03-02T06:52:43;92905.44;;;6.06
67434;BMP280;54305;47.950;6.572;2024-03-02T06:55:09;92904.75;;;6.12
67434;BMP280;54305;47.950;6.572;2024-03-02T06:57:34;92905.31;;;6.19
67434;BMP280;54305;47.950;6.572;2024-03-02T06:59:59;92913.16;;;6.30
67434;BMP280;54305;47.950;6.572;2024-03-02T07:02:25;92907.75;;;6.35
67434;BMP280;54305;47.950;6.572;2024-03-02T07:04:53;92913.31;;;6.35
67434;BMP280;54305;47.950;6.572;2024-03-02T07:07:19;92913.75;;;6.31
67434;BMP280;54305;47.950;6.572;2024-03-02T07:09:45;92911.41;;;6.33
67434;BMP280;54305;47.950;6.572;2024-03-02T07:12:10;92910.00;;;6.45
67434;BMP280;54305;47.950;6.572;2024-03-02T07:14:35;92913.66;;;6.44
67434;BMP280;54305;47.950;6.572;2024-03-02T07:17:33;92914.47;;;6.49
67434;BMP280;54305;47.950;6.572;2024-03-02T07:19:59;92907.31;;;6.56
67434;BMP280;54305;47.950;6.572;2024-03-02T07:22:24;92915.44;;;6.58
67434;BMP280;54305;47.950;6.572;2024-03-02T07:24:50;92919.44;;;6.66
67434;BMP280;54305;47.950;6.572;2024-03-02T07:27:16;92908.03;;;6.92
67434;BMP280;54305;47.950;6.572;2024-03-02T07:29:42;92907.94;;;6.81
67434;BMP280;54305;47.950;6.572;2024-03-02T07:32:08;92911.34;;;6.99
67434;BMP280;54305;47.950;6.572;2024-03-02T07:34:34;92893.56;;;7.03
67434;BMP280;54305;47.950;6.572;2024-03-02T07:37:00;92903.72;;;7.11
67434;BMP280;54305;47.950;6.572;2024-03-02T07:39:26;92907.31;;;7.16
67434;BMP280;54305;47.950;6.572;2024-03-02T07:41:51;92911.81;;;7.48
67434;BMP280;54305;47.950;6.572;2024-03-02T07:44:17;92909.16;;;7.53
67434;BMP280;54305;47.950;6.572;2024-03-02T07:46:45;92904.53;;;7.62
67434;BMP280;54305;47.950;6.572;2024-03-02T07:49:15;92906.97;;;7.71
67434;BMP280;54305;47.950;6.572;2024-03-02T07:51:40;92917.16;;;7.79
67434;BMP280;54305;47.950;6.572;2024-03-02T07:54:06;92911.34;;;7.81
67434;BMP280;54305;47.950;6.572;2024-03-02T07:56:31;92915.09;;;7.73
67434;BMP280;54305;47.950;6.572;2024-03-02T07:58:57;92911.28;;;7.70
67434;BMP280;54305;47.950;6.572;2024-03-02T08:01:27;92909.59;;;7.84
67434;BMP280;54305;47.950;6.572;2024-03-02T08:03:52;92923.50;;;7.84
67434;BMP280;54305;47.950;6.572;2024-03-02T08:06:18;92917.31;;;7.84
67434;BMP280;54305;47.950;6.572;2024-03-02T08:08:46;92915.41;;;7.82
67434;BMP280;54305;47.950;6.572;2024-03-02T08:11:12;92914.13;;;7.81
67434;BMP280;54305;47.950;6.572;2024-03-02T08:13:38;92917.25;;;8.01
67434;BMP280;54305;47.950;6.572;2024-03-02T08:16:03;92918.38;;;7.98
67434;BMP280;54305;47.950;6.572;2024-03-02T08:18:32;92913.28;;;7.94
67434;BMP280;54305;47.950;6.572;2024-03-02T08:20:57;92909.72;;;7.89
67434;BMP280;54305;47.950;6.572;2024-03-02T08:23:23;92911.41;;;7.92
67434;BMP280;54305;47.950;6.572;2024-03-02T08:25:48;92918.72;;;7.89
67434;BMP280;54305;47.950;6.572;2024-03-02T08:28:13;92919.00;;;7.98
67434;BMP280;54305;47.950;6.572;2024-03-02T08:30:39;92923.25;;;8.15
67434;BMP280;54305;47.950;6.572;2024-03-02T08:33:04;92919.19;;;8.14
67434;BMP280;54305;47.950;6.572;2024-03-02T08:35:30;92924.56;;;8.27
67434;BMP280;54305;47.950;6.572;2024-03-02T08:38:01;92920.50;;;8.26
67434;BMP280;54305;47.950;6.572;2024-03-02T08:40:26;92925.56;;;8.30
67434;BMP280;54305;47.950;6.572;2024-03-02T08:42:52;92923.53;;;8.24
67434;BMP280;54305;47.950;6.572;2024-03-02T08:45:17;92912.28;;;8.42
67434;BMP280;54305;47.950;6.572;2024-03-02T08:47:45;92913.81;;;8.52
67434;BMP280;54305;47.950;6.572;2024-03-02T08:50:11;92906.34;;;8.61
67434;BMP280;54305;47.950;6.572;2024-03-02T08:52:36;92920.19;;;8.79
67434;BMP280;54305;47.950;6.572;2024-03-02T08:55:01;92921.97;;;8.76
67434;BMP280;54305;47.950;6.572;2024-03-02T08:57:27;92907.25;;;8.82
67434;BMP280;54305;47.950;6.572;2024-03-02T08:59:52;92911.31;;;9.17
67434;BMP280;54305;47.950;6.572;2024-03-02T09:02:18;92919.66;;;9.39
67434;BMP280;54305;47.950;6.572;2024-03-02T09:04:43;92916.69;;;9.56
67434;BMP280;54305;47.950;6.572;2024-03-02T09:07:09;92923.03;;;9.61
67434;BMP280;54305;47.950;6.572;2024-03-02T09:09:34;92918.66;;;9.74
67434;BMP280;54305;47.950;6.572;2024-03-02T09:12:00;92911.94;;;9.66
67434;BMP280;54305;47.950;6.572;2024-03-02T09:14:25;92920.94;;;9.78
67434;BMP280;54305;47.950;6.572;2024-03-02T09:16:51;92907.22;;;9.76
67434;BMP280;54305;47.950;6.572;2024-03-02T09:19:16;92917.16;;;10.01
67434;BMP280;54305;47.950;6.572;2024-03-02T09:21:42;92915.88;;;10.27
67434;BMP280;54305;47.950;6.572;2024-03-02T09:24:07;92909.13;;;10.31
67434;BMP280;54305;47.950;6.572;2024-03-02T09:26:33;92901.66;;;10.45
67434;BMP280;54305;47.950;6.572;2024-03-02T09:28:58;92909.44;;;10.44
67434;BMP280;54305;47.950;6.572;2024-03-02T09:31:23;92904.59;;;10.23
67434;BMP280;54305;47.950;6.572;2024-03-02T09:33:49;92902.38;;;10.50
67434;BMP280;54305;47.950;6.572;2024-03-02T09:36:21;92906.63;;;10.44
67434;BMP280;54305;47.950;6.572;2024-03-02T09:38:47;92910.53;;;10.99
67434;BMP280;54305;47.950;6.572;2024-03-02T09:41:13;92904.13;;;10.89
67434;BMP280;54305;47.950;6.572;2024-03-02T09:43:40;92902.31;;;10.92
67434;BMP280;54305;47.950;6.572;2024-03-02T09:46:08;92894.53;;;10.46
67434;BMP280;54305;47.950;6.572;2024-03-02T09:48:33;92890.94;;;10.52
67434;BMP280;54305;47.950;6.572;2024-03-02T09:51:00;92899.13;;;11.21
67434;BMP280;54305;47.950;6.572;2024-03-02T09:53:31;92895.28;;;11.49
67434;BMP280;54305;47.950;6.572;2024-03-02T09:55:57;92889.59;;;11.45
67434;BMP280;54305;47.950;6.572;2024-03-02T09:58:22;92896.94;;;11.73
67434;BMP280;54305;47.950;6.572;2024-03-02T10:00:48;92889.66;;;11.85
67434;BMP280;54305;47.950;6.572;2024-03-02T10:03:14;92884.19;;;12.14
67434;BMP280;54305;47.950;6.572;2024-03-02T10:05:40;92877.28;;;12.34
67434;BMP280;54305;47.950;6.572;2024-03-02T10:08:05;92889.78;;;12.35
67434;BMP280;54305;47.950;6.572;2024-03-02T10:10:49;92870.03;;;11.85
67434;BMP280;54305;47.950;6.572;2024-03-02T10:13:15;92871.16;;;11.97
67434;BMP280;54305;47.950;6.572;2024-03-02T10:15:41;92873.09;;;11.83
67434;BMP280;54305;47.950;6.572;2024-03-02T10:18:11;92869.38;;;11.64
67434;BMP280;54305;47.950;6.572;2024-03-02T10:20:44;92864.13;;;12.32
67434;BMP280;54305;47.950;6.572;2024-03-02T10:23:14;92876.34;;;13.09
67434;BMP280;54305;47.950;6.572;2024-03-02T10:25:41;92866.38;;;13.49
67434;BMP280;54305;47.950;6.572;2024-03-02T10:28:06;92861.97;;;13.79
67434;BMP280;54305;47.950;6.572;2024-03-02T10:30:35;92865.72;;;13.44
67434;BMP280;54305;47.950;6.572;2024-03-02T10:33:01;92860.25;;;13.28
67434;BMP280;54305;47.950;6.572;2024-03-02T10:35:27;92860.66;;;12.76
67434;BMP280;54305;47.950;6.572;2024-03-02T10:37:53;92853.09;;;12.46
67434;BMP280;54305;47.950;6.572;2024-03-02T10:40:22;92859.44;;;12.80
67434;BMP280;54305;47.950;6.572;2024-03-02T10:42:49;92869.31;;;12.70
67434;BMP280;54305;47.950;6.572;2024-03-02T10:45:15;92863.50;;;12.56
67434;BMP280;54305;47.950;6.572;2024-03-02T10:47:42;92858.66;;;11.96
67434;BMP280;54305;47.950;6.572;2024-03-02T10:50:09;92862.44;;;11.79
67434;BMP280;54305;47.950;6.572;2024-03-02T10:52:35;92864.81;;;11.72
67434;BMP280;54305;47.950;6.572;2024-03-02T10:55:01;92859.63;;;11.79
67434;BMP280;54305;47.950;6.572;2024-03-02T10:57:33;92850.84;;;12.17
67434;BMP280;54305;47.950;6.572;2024-03-02T11:00:06;92860.31;;;12.24
67434;BMP280;54305;47.950;6.572;2024-03-02T11:02:42;92853.53;;;12.33
67434;BMP280;54305;47.950;6.572;2024-03-02T11:05:09;92853.47;;;11.83
67434;BMP280;54305;47.950;6.572;2024-03-02T11:07:37;92854.56;;;11.95
67434;BMP280;54305;47.950;6.572;2024-03-02T11:10:05;92862.44;;;11.99
67434;BMP280;54305;47.950;6.572;2024-03-02T11:12:39;92857.94;;;11.51
67434;BMP280;54305;47.950;6.572;2024-03-02T11:15:11;92847.88;;;11.63
67434;BMP280;54305;47.950;6.572;2024-03-02T11:17:40;92848.00;;;11.52
67434;BMP280;54305;47.950;6.572;2024-03-02T11:20:07;92863.34;;;11.78
67434;BMP280;54305;47.950;6.572;2024-03-02T11:22:36;92856.13;;;11.54
67434;BMP280;54305;47.950;6.572;2024-03-02T11:25:02;92844.44;;;11.62
67434;BMP280;54305;47.950;6.572;2024-03-02T11:33:06;92852.97;;;11.71
67434;BMP280;54305;47.950;6.572;2024-03-02T11:35:33;92855.13;;;11.51
67434;BMP280;54305;47.950;6.572;2024-03-02T11:37:58;92855.03;;;11.26
67434;BMP280;54305;47.950;6.572;2024-03-02T11:40:24;92844.50;;;11.31
67434;BMP280;54305;47.950;6.572;2024-03-02T11:42:50;92839.06;;;11.04
67434;BMP280;54305;47.950;6.572;2024-03-02T11:45:25;92849.56;;;10.99
67434;BMP280;54305;47.950;6.572;2024-03-02T11:47:54;92853.91;;;10.83
67434;BMP280;54305;47.950;6.572;2024-03-02T11:50:39;92846.50;;;10.70
67434;BMP280;54305;47.950;6.572;2024-03-02T11:53:06;92849.66;;;10.88
67434;BMP280;54305;47.950;6.572;2024-03-02T11:55:35;92852.81;;;10.91
67434;BMP280;54305;47.950;6.572;2024-03-02T11:58:03;92845.06;;;10.91
67434;BMP280;54305;47.950;6.572;2024-03-02T12:00:29;92832.69;;;10.79
67434;BMP280;54305;47.950;6.572;2024-03-02T12:03:02;92839.63;;;10.69
67434;BMP280;54305;47.950;6.572;2024-03-02T12:05:29;92844.44;;;10.91
67434;BMP280;54305;47.950;6.572;2024-03-02T12:07:57;92837.28;;;11.07
67434;BMP280;54305;47.950;6.572;2024-03-02T12:10:22;92838.56;;;11.29
67434;BMP280;54305;47.950;6.572;2024-03-02T12:12:55;92835.13;;;11.28
67434;BMP280;54305;47.950;6.572;2024-03-02T12:15:28;92827.19;;;11.19
67434;BMP280;54305;47.950;6.572;2024-03-02T12:17:58;92833.31;;;11.31
67434;BMP280;54305;47.950;6.572;2024-03-02T12:20:24;92835.59;;;11.19
67434;BMP280;54305;47.950;6.572;2024-03-02T12:22:51;92825.25;;;10.98
67434;BMP280;54305;47.950;6.572;2024-03-02T12:25:21;92833.22;;;10.75
67434;BMP280;54305;47.950;6.572;2024-03-02T12:27:49;92830.34;;;10.71
67434;BMP280;54305;47.950;6.572;2024-03-02T12:30:19;92831.44;;;10.62
67434;BMP280;54305;47.950;6.572;2024-03-02T12:32:45;92832.22;;;10.72
67434;BMP280;54305;47.950;6.572;2024-03-02T12:35:11;92830.19;;;10.61
67434;BMP280;54305;47.950;6.572;2024-03-02T12:40:13;92834.75;;;10.43
67434;BMP280;54305;47.950;6.572;2024-03-02T12:42:41;92832.47;;;10.23
67434;BMP280;54305;47.950;6.572;2024-03-02T12:45:07;92836.03;;;10.28
67434;BMP280;54305;47.950;6.572;2024-03-02T12:47:36;92836.25;;;10.10
67434;BMP280;54305;47.950;6.572;2024-03-02T12:50:03;92833.47;;;10.10
67434;BMP280;54305;47.950;6.572;2024-03-02T12:52:29;92827.94;;;10.15
67434;BMP280;54305;47.950;6.572;2024-03-02T12:54:55;92819.41;;;10.06
67434;BMP280;54305;47.950;6.572;2024-03-02T12:57:28;92813.41;;;10.03
67434;BMP280;54305;47.950;6.572;2024-03-02T13:00:03;92811.94;;;9.93
67434;BMP280;54305;47.950;6.572;2024-03-02T13:02:35;92812.78;;;10.03
67434;BMP280;54305;47.950;6.572;2024-03-02T13:05:00;92813.22;;;9.94
67434;BMP280;54305;47.950;6.572;2024-03-02T13:07:26;92804.03;;;10.00
67434;BMP280;54305;47.950;6.572;2024-03-02T13:09:53;92805.50;;;10.10
67434;BMP280;54305;47.950;6.572;2024-03-02T13:12:20;92794.13;;;10.33
67434;BMP280;54305;47.950;6.572;2024-03-02T13:14:51;92799.47;;;10.35
67434;BMP280;54305;47.950;6.572;2024-03-02T13:17:18;92795.22;;;10.56
67434;BMP280;54305;47.950;6.572;2024-03-02T13:19:57;92787.81;;;10.59
67434;BMP280;54305;47.950;6.572;2024-03-02T13:22:23;92784.03;;;10.72
67434;BMP280;54305;47.950;6.572;2024-03-02T13:24:52;92787.72;;;10.86
67434;BMP280;54305;47.950;6.572;2024-03-02T13:27:19;92780.34;;;11.29
67434;BMP280;54305;47.950;6.572;2024-03-02T13:29:48;92773.13;;;11.86
67434;BMP280;54305;47.950;6.572;2024-03-02T13:32:16;92765.00;;;12.09
67434;BMP280;54305;47.950;6.572;2024-03-02T13:34:42;92760.31;;;12.07
67434;BMP280;54305;47.950;6.572;2024-03-02T13:37:08;92754.41;;;12.09
67434;BMP280;54305;47.950;6.572;2024-03-02T13:39:34;92744.06;;;12.03
67434;BMP280;54305;47.950;6.572;2024-03-02T13:42:11;92738.28;;;12.14
67434;BMP280;54305;47.950;6.572;2024-03-02T13:44:39;92725.00;;;12.28
67434;BMP280;54305;47.950;6.572;2024-03-02T13:47:05;92725.59;;;12.24
67434;BMP280;54305;47.950;6.572;2024-03-02T13:49:31;92719.88;;;12.15
67434;BMP280;54305;47.950;6.572;2024-03-02T13:52:02;92722.00;;;12.10
67434;BMP280;54305;47.950;6.572;2024-03-02T13:54:29;92720.97;;;12.03
67434;BMP280;54305;47.950;6.572;2024-03-02T13:56:56;92723.19;;;11.82
67434;BMP280;54305;47.950;6.572;2024-03-02T13:59:23;92727.31;;;11.63
67434;BMP280;54305;47.950;6.572;2024-03-02T14:01:49;92725.63;;;11.55
67434;BMP280;54305;47.950;6.572;2024-03-02T14:04:15;92724.97;;;11.74
67434;BMP280;54305;47.950;6.572;2024-03-02T14:06:40;92721.94;;;12.31
67434;BMP280;54305;47.950;6.572;2024-03-02T14:09:08;92718.34;;;12.75
67434;BMP280;54305;47.950;6.572;2024-03-02T14:11:34;92717.19;;;13.21
67434;BMP280;54305;47.950;6.572;2024-03-02T14:13:59;92708.44;;;13.23
67434;BMP280;54305;47.950;6.572;2024-03-02T14:16:25;92702.59;;;12.96
67434;BMP280;54305;47.950;6.572;2024-03-02T14:18:50;92705.81;;;12.69
67434;BMP280;54305;47.950;6.572;2024-03-02T14:21:15;92703.44;;;12.22
67434;BMP280;54305;47.950;6.572;2024-03-02T14:23:41;92695.81;;;12.37
67434;BMP280;54305;47.950;6.572;2024-03-02T14:26:06;92687.69;;;12.35